Pagrindinis puslapis
METAR-TAF:

METAR-TAF

Oro uostai :

Naksas, Graikija

platuma: 37-04-47N, ilguma: 025-22-01E, Aukštis: 3 m

Dabartinis oras

Ataskaita buvo paskelbta 2 valandos ir 4 minutes, ne 15:50 UTC
Vėjas 12 kt iš Šiaurės
Temperatūra 24°C
Drėgmė 65%
Slėgis 1015 hPa
Matomumas 10 km arba daugiau
nėra debesų žemiau 1500 m ir nėra kamuolinių lietaus debesų

METAR: LGNX 151550Z 01012KT CAVOK 24/17 Q1015

Laikas: 20:54 (17:54 UTC)


TAF: trūkstamas

Orai ataskaitas ir orų prognozės (METAR, TAF).

turimą stotys yra geltonos ir raudonos taškus žemėlapyje.

Perkelti pele per norėdami pamatyti stoties vardą.

Tada spustelėkite, norėdami matyti oro stebėjimo ir prognozės.

Norėdami pakeisti žemėlapį: spustelėkite ant žalios mygtukų su juodo kryžiaus žemyn,; žalią mygtuką su brūkšneliu, jei norite nutolinti; arba žalių rodyklių gretimoms žemėlapius.


METAR-TAF: